sensor_id;sensor_type;location;lat;lon;timestamp;P1;durP1;ratioP1;P2;durP2;ratioP2
75191;SDS011;63771;52.580;9.734;2022-11-25T00:01:34;13.27;;;8.30;;
75191;SDS011;63771;52.580;9.734;2022-11-25T00:04:02;16.63;;;8.85;;
75191;SDS011;63771;52.580;9.734;2022-11-25T00:06:29;14.05;;;8.25;;
75191;SDS011;63771;52.580;9.734;2022-11-25T00:09:03;14.95;;;8.85;;
75191;SDS011;63771;52.580;9.734;2022-11-25T00:11:35;14.18;;;8.25;;
75191;SDS011;63771;52.580;9.734;2022-11-25T00:14:02;13.65;;;7.97;;
75191;SDS011;63771;52.580;9.734;2022-11-25T00:16:27;12.02;;;8.95;;
75191;SDS011;63771;52.580;9.734;2022-11-25T00:18:53;11.93;;;8.43;;
75191;SDS011;63771;52.580;9.734;2022-11-25T00:21:23;12.88;;;8.32;;
75191;SDS011;63771;52.580;9.734;2022-11-25T00:23:57;18.70;;;8.88;;
75191;SDS011;63771;52.580;9.734;2022-11-25T00:28:51;10.57;;;7.95;;
75191;SDS011;63771;52.580;9.734;2022-11-25T00:31:18;10.75;;;7.32;;
75191;SDS011;63771;52.580;9.734;2022-11-25T00:33:48;12.75;;;7.45;;
75191;SDS011;63771;52.580;9.734;2022-11-25T00:38:41;14.20;;;6.85;;
75191;SDS011;63771;52.580;9.734;2022-11-25T00:41:07;12.82;;;7.97;;
75191;SDS011;63771;52.580;9.734;2022-11-25T00:43:51;12.98;;;7.97;;
75191;SDS011;63771;52.580;9.734;2022-11-25T00:46:34;8.95;;;6.90;;
75191;SDS011;63771;52.580;9.734;2022-11-25T00:49:00;12.32;;;7.75;;
75191;SDS011;63771;52.580;9.734;2022-11-25T00:51:25;10.10;;;6.37;;
75191;SDS011;63771;52.580;9.734;2022-11-25T00:53:51;10.13;;;7.70;;
75191;SDS011;63771;52.580;9.734;2022-11-25T00:56:16;10.03;;;6.27;;
75191;SDS011;63771;52.580;9.734;2022-11-25T00:58:42;9.68;;;6.80;;
75191;SDS011;63771;52.580;9.734;2022-11-25T01:01:08;8.88;;;5.63;;
75191;SDS011;63771;52.580;9.734;2022-11-25T01:03:34;10.38;;;6.28;;
75191;SDS011;63771;52.580;9.734;2022-11-25T01:06:02;10.55;;;6.40;;
75191;SDS011;63771;52.580;9.734;2022-11-25T01:08:32;11.48;;;5.93;;
75191;SDS011;63771;52.580;9.734;2022-11-25T01:10:59;9.00;;;5.80;;
75191;SDS011;63771;52.580;9.734;2022-11-25T01:13:25;14.77;;;6.40;;
75191;SDS011;63771;52.580;9.734;2022-11-25T01:15:51;8.95;;;5.97;;
75191;SDS011;63771;52.580;9.734;2022-11-25T01:18:16;9.40;;;6.17;;
75191;SDS011;63771;52.580;9.734;2022-11-25T01:20:41;7.20;;;4.90;;
75191;SDS011;63771;52.580;9.734;2022-11-25T01:23:06;10.25;;;5.43;;
75191;SDS011;63771;52.580;9.734;2022-11-25T01:25:35;7.80;;;6.03;;
75191;SDS011;63771;52.580;9.734;2022-11-25T01:28:01;9.20;;;5.32;;
75191;SDS011;63771;52.580;9.734;2022-11-25T01:30:26;11.87;;;6.10;;
75191;SDS011;63771;52.580;9.734;2022-11-25T01:32:51;11.93;;;5.40;;
75191;SDS011;63771;52.580;9.734;2022-11-25T01:35:17;8.38;;;5.13;;
75191;SDS011;63771;52.580;9.734;2022-11-25T01:37:42;7.97;;;5.80;;
75191;SDS011;63771;52.580;9.734;2022-11-25T01:40:08;7.40;;;4.60;;
75191;SDS011;63771;52.580;9.734;2022-11-25T01:42:34;9.73;;;5.40;;
75191;SDS011;63771;52.580;9.734;2022-11-25T01:47:59;6.80;;;5.50;;
75191;SDS011;63771;52.580;9.734;2022-11-25T01:50:29;11.35;;;5.47;;
75191;SDS011;63771;52.580;9.734;2022-11-25T01:52:57;6.65;;;4.88;;
75191;SDS011;63771;52.580;9.734;2022-11-25T01:55:26;9.27;;;5.00;;
75191;SDS011;63771;52.580;9.734;2022-11-25T01:57:56;10.18;;;5.30;;
75191;SDS011;63771;52.580;9.734;2022-11-25T02:00:27;9.00;;;4.90;;
75191;SDS011;63771;52.580;9.734;2022-11-25T02:02:53;5.18;;;4.28;;
75191;SDS011;63771;52.580;9.734;2022-11-25T02:05:21;10.43;;;5.32;;
75191;SDS011;63771;52.580;9.734;2022-11-25T02:07:50;7.68;;;4.32;;
75191;SDS011;63771;52.580;9.734;2022-11-25T02:10:35;9.40;;;5.05;;
75191;SDS011;63771;52.580;9.734;2022-11-25T02:13:02;8.50;;;6.05;;
75191;SDS011;63771;52.580;9.734;2022-11-25T02:15:28;8.57;;;4.55;;
75191;SDS011;63771;52.580;9.734;2022-11-25T02:17:55;8.93;;;5.00;;
75191;SDS011;63771;52.580;9.734;2022-11-25T02:20:21;10.63;;;7.45;;
75191;SDS011;63771;52.580;9.734;2022-11-25T02:23:03;5.18;;;4.68;;
75191;SDS011;63771;52.580;9.734;2022-11-25T02:25:32;9.15;;;5.05;;
75191;SDS011;63771;52.580;9.734;2022-11-25T02:28:20;5.63;;;4.75;;
75191;SDS011;63771;52.580;9.734;2022-11-25T02:30:47;6.50;;;4.72;;
75191;SDS011;63771;52.580;9.734;2022-11-25T02:33:14;7.43;;;4.82;;
75191;SDS011;63771;52.580;9.734;2022-11-25T02:35:41;9.20;;;4.95;;
75191;SDS011;63771;52.580;9.734;2022-11-25T02:38:23;6.18;;;4.82;;
75191;SDS011;63771;52.580;9.734;2022-11-25T02:41:02;5.30;;;4.25;;
75191;SDS011;63771;52.580;9.734;2022-11-25T02:43:31;5.03;;;4.47;;
75191;SDS011;63771;52.580;9.734;2022-11-25T02:48:27;11.93;;;6.18;;
75191;SDS011;63771;52.580;9.734;2022-11-25T02:50:54;7.30;;;5.75;;
75191;SDS011;63771;52.580;9.734;2022-11-25T02:53:27;7.53;;;5.20;;
75191;SDS011;63771;52.580;9.734;2022-11-25T02:55:53;5.95;;;4.15;;
75191;SDS011;63771;52.580;9.734;2022-11-25T02:58:18;5.50;;;3.77;;
75191;SDS011;63771;52.580;9.734;2022-11-25T03:00:44;4.88;;;4.35;;
75191;SDS011;63771;52.580;9.734;2022-11-25T03:03:10;6.72;;;4.30;;
75191;SDS011;63771;52.580;9.734;2022-11-25T03:05:36;8.85;;;4.18;;
75191;SDS011;63771;52.580;9.734;2022-11-25T03:08:01;7.35;;;5.15;;
75191;SDS011;63771;52.580;9.734;2022-11-25T03:10:27;6.90;;;4.35;;
75191;SDS011;63771;52.580;9.734;2022-11-25T03:12:52;6.28;;;4.45;;
75191;SDS011;63771;52.580;9.734;2022-11-25T03:15:18;8.05;;;4.00;;
75191;SDS011;63771;52.580;9.734;2022-11-25T03:17:44;7.68;;;4.03;;
75191;SDS011;63771;52.580;9.734;2022-11-25T03:20:09;7.53;;;4.13;;
75191;SDS011;63771;52.580;9.734;2022-11-25T03:22:36;8.15;;;3.80;;
75191;SDS011;63771;52.580;9.734;2022-11-25T03:25:02;8.68;;;3.70;;
75191;SDS011;63771;52.580;9.734;2022-11-25T03:27:27;3.97;;;3.50;;
75191;SDS011;63771;52.580;9.734;2022-11-25T03:29:53;5.37;;;4.27;;
75191;SDS011;63771;52.580;9.734;2022-11-25T03:32:18;6.60;;;3.87;;
75191;SDS011;63771;52.580;9.734;2022-11-25T03:34:43;7.05;;;3.67;;
75191;SDS011;63771;52.580;9.734;2022-11-25T03:37:09;6.60;;;3.23;;
75191;SDS011;63771;52.580;9.734;2022-11-25T03:39:34;5.65;;;3.35;;
75191;SDS011;63771;52.580;9.734;2022-11-25T03:42:00;5.72;;;3.58;;
75191;SDS011;63771;52.580;9.734;2022-11-25T03:44:25;10.33;;;4.07;;
75191;SDS011;63771;52.580;9.734;2022-11-25T03:46:51;6.88;;;3.40;;
75191;SDS011;63771;52.580;9.734;2022-11-25T03:49:16;8.60;;;3.47;;
75191;SDS011;63771;52.580;9.734;2022-11-25T03:51:41;4.57;;;3.97;;
75191;SDS011;63771;52.580;9.734;2022-11-25T03:54:07;6.07;;;3.00;;
75191;SDS011;63771;52.580;9.734;2022-11-25T03:56:32;9.00;;;3.43;;
75191;SDS011;63771;52.580;9.734;2022-11-25T03:58:58;6.40;;;3.40;;
75191;SDS011;63771;52.580;9.734;2022-11-25T04:01:23;8.50;;;4.17;;
75191;SDS011;63771;52.580;9.734;2022-11-25T04:03:48;5.27;;;2.87;;
75191;SDS011;63771;52.580;9.734;2022-11-25T04:06:13;7.03;;;2.80;;
75191;SDS011;63771;52.580;9.734;2022-11-25T04:08:40;3.83;;;3.05;;
75191;SDS011;63771;52.580;9.734;2022-11-25T04:11:05;11.48;;;3.05;;
75191;SDS011;63771;52.580;9.734;2022-11-25T04:13:31;5.00;;;2.77;;
75191;SDS011;63771;52.580;9.734;2022-11-25T04:15:56;10.07;;;3.33;;
75191;SDS011;63771;52.580;9.734;2022-11-25T04:18:21;3.47;;;3.03;;
75191;SDS011;63771;52.580;9.734;2022-11-25T04:20:47;4.10;;;2.87;;
75191;SDS011;63771;52.580;9.734;2022-11-25T04:23:12;5.63;;;3.50;;
75191;SDS011;63771;52.580;9.734;2022-11-25T04:25:38;4.30;;;3.13;;
75191;SDS011;63771;52.580;9.734;2022-11-25T04:28:03;3.22;;;2.92;;
75191;SDS011;63771;52.580;9.734;2022-11-25T04:30:29;7.47;;;3.35;;
75191;SDS011;63771;52.580;9.734;2022-11-25T04:32:55;4.25;;;3.10;;
75191;SDS011;63771;52.580;9.734;2022-11-25T04:35:20;6.93;;;3.22;;
75191;SDS011;63771;52.580;9.734;2022-11-25T04:37:46;6.93;;;2.72;;
75191;SDS011;63771;52.580;9.734;2022-11-25T04:40:11;6.13;;;3.23;;
75191;SDS011;63771;52.580;9.734;2022-11-25T04:42:37;8.80;;;3.10;;
75191;SDS011;63771;52.580;9.734;2022-11-25T04:45:13;13.13;;;3.10;;
75191;SDS011;63771;52.580;9.734;2022-11-25T04:47:40;9.32;;;3.38;;
75191;SDS011;63771;52.580;9.734;2022-11-25T04:50:08;3.35;;;3.00;;
75191;SDS011;63771;52.580;9.734;2022-11-25T04:52:37;7.55;;;2.85;;
75191;SDS011;63771;52.580;9.734;2022-11-25T04:55:02;10.80;;;3.67;;
75191;SDS011;63771;52.580;9.734;2022-11-25T04:57:28;11.07;;;3.78;;
75191;SDS011;63771;52.580;9.734;2022-11-25T04:59:54;7.28;;;3.53;;
75191;SDS011;63771;52.580;9.734;2022-11-25T05:02:23;3.17;;;2.83;;
75191;SDS011;63771;52.580;9.734;2022-11-25T05:04:51;10.27;;;3.15;;
75191;SDS011;63771;52.580;9.734;2022-11-25T05:07:19;7.22;;;2.95;;
75191;SDS011;63771;52.580;9.734;2022-11-25T05:09:46;12.43;;;3.97;;
75191;SDS011;63771;52.580;9.734;2022-11-25T05:12:13;10.27;;;3.13;;
75191;SDS011;63771;52.580;9.734;2022-11-25T05:14:41;6.03;;;3.03;;
75191;SDS011;63771;52.580;9.734;2022-11-25T05:17:07;5.78;;;3.33;;
75191;SDS011;63771;52.580;9.734;2022-11-25T05:19:38;5.15;;;3.35;;
75191;SDS011;63771;52.580;9.734;2022-11-25T05:22:04;10.00;;;3.35;;
75191;SDS011;63771;52.580;9.734;2022-11-25T05:24:30;9.48;;;3.72;;
75191;SDS011;63771;52.580;9.734;2022-11-25T05:26:55;5.30;;;3.05;;
75191;SDS011;63771;52.580;9.734;2022-11-25T05:29:22;6.22;;;2.60;;
75191;SDS011;63771;52.580;9.734;2022-11-25T05:31:47;9.43;;;3.50;;
75191;SDS011;63771;52.580;9.734;2022-11-25T05:34:13;7.83;;;3.40;;
75191;SDS011;63771;52.580;9.734;2022-11-25T05:36:38;5.53;;;3.38;;
75191;SDS011;63771;52.580;9.734;2022-11-25T05:39:03;4.57;;;3.27;;
75191;SDS011;63771;52.580;9.734;2022-11-25T05:41:29;4.93;;;3.28;;
75191;SDS011;63771;52.580;9.734;2022-11-25T05:43:54;4.77;;;3.63;;
75191;SDS011;63771;52.580;9.734;2022-11-25T05:46:20;5.30;;;4.32;;
75191;SDS011;63771;52.580;9.734;2022-11-25T05:48:46;9.75;;;3.75;;
75191;SDS011;63771;52.580;9.734;2022-11-25T05:51:12;6.97;;;3.55;;
75191;SDS011;63771;52.580;9.734;2022-11-25T05:53:37;6.70;;;2.73;;
75191;SDS011;63771;52.580;9.734;2022-11-25T05:56:04;13.67;;;4.47;;
75191;SDS011;63771;52.580;9.734;2022-11-25T05:58:30;8.10;;;3.15;;
75191;SDS011;63771;52.580;9.734;2022-11-25T06:00:56;5.45;;;2.88;;
75191;SDS011;63771;52.580;9.734;2022-11-25T06:03:25;9.90;;;3.90;;
75191;SDS011;63771;52.580;9.734;2022-11-25T06:05:51;8.20;;;2.90;;
75191;SDS011;63771;52.580;9.734;2022-11-25T06:08:17;6.35;;;3.53;;
75191;SDS011;63771;52.580;9.734;2022-11-25T06:10:42;7.60;;;3.17;;
75191;SDS011;63771;52.580;9.734;2022-11-25T06:13:08;4.15;;;3.00;;
75191;SDS011;63771;52.580;9.734;2022-11-25T06:15:34;3.88;;;2.75;;
75191;SDS011;63771;52.580;9.734;2022-11-25T06:18:04;11.30;;;3.85;;
75191;SDS011;63771;52.580;9.734;2022-11-25T06:20:29;5.57;;;2.93;;
75191;SDS011;63771;52.580;9.734;2022-11-25T06:22:56;6.63;;;3.30;;
75191;SDS011;63771;52.580;9.734;2022-11-25T06:25:22;8.10;;;3.25;;
75191;SDS011;63771;52.580;9.734;2022-11-25T06:27:48;9.82;;;3.25;;
75191;SDS011;63771;52.580;9.734;2022-11-25T06:30:13;9.55;;;3.10;;
75191;SDS011;63771;52.580;9.734;2022-11-25T06:32:39;3.95;;;3.00;;
75191;SDS011;63771;52.580;9.734;2022-11-25T06:35:04;8.20;;;2.83;;
75191;SDS011;63771;52.580;9.734;2022-11-25T06:37:31;5.53;;;3.55;;
75191;SDS011;63771;52.580;9.734;2022-11-25T06:39:56;3.63;;;3.35;;
75191;SDS011;63771;52.580;9.734;2022-11-25T06:42:21;10.27;;;3.13;;
75191;SDS011;63771;52.580;9.734;2022-11-25T06:44:47;5.83;;;2.83;;
75191;SDS011;63771;52.580;9.734;2022-11-25T06:47:12;5.47;;;3.40;;
75191;SDS011;63771;52.580;9.734;2022-11-25T06:49:37;7.73;;;3.83;;
75191;SDS011;63771;52.580;9.734;2022-11-25T06:52:03;6.70;;;3.53;;
75191;SDS011;63771;52.580;9.734;2022-11-25T06:54:28;10.32;;;3.83;;
75191;SDS011;63771;52.580;9.734;2022-11-25T06:56:53;10.10;;;4.10;;
75191;SDS011;63771;52.580;9.734;2022-11-25T06:59:19;6.57;;;4.20;;
75191;SDS011;63771;52.580;9.734;2022-11-25T07:01:45;6.20;;;3.45;;
75191;SDS011;63771;52.580;9.734;2022-11-25T07:04:11;11.68;;;4.40;;
75191;SDS011;63771;52.580;9.734;2022-11-25T07:06:37;6.47;;;3.55;;
75191;SDS011;63771;52.580;9.734;2022-11-25T07:09:02;6.60;;;3.77;;
75191;SDS011;63771;52.580;9.734;2022-11-25T07:11:29;3.85;;;3.53;;
75191;SDS011;63771;52.580;9.734;2022-11-25T07:13:57;8.95;;;3.72;;
75191;SDS011;63771;52.580;9.734;2022-11-25T07:16:24;5.10;;;3.75;;
75191;SDS011;63771;52.580;9.734;2022-11-25T07:18:50;10.07;;;3.78;;
75191;SDS011;63771;52.580;9.734;2022-11-25T07:21:17;5.23;;;3.23;;
75191;SDS011;63771;52.580;9.734;2022-11-25T07:23:45;6.72;;;3.75;;
75191;SDS011;63771;52.580;9.734;2022-11-25T07:26:12;10.68;;;3.28;;
75191;SDS011;63771;52.580;9.734;2022-11-25T07:28:39;6.63;;;3.58;;
75191;SDS011;63771;52.580;9.734;2022-11-25T07:31:09;6.47;;;3.40;;
75191;SDS011;63771;52.580;9.734;2022-11-25T07:33:38;6.10;;;3.15;;
75191;SDS011;63771;52.580;9.734;2022-11-25T07:36:04;5.88;;;3.88;;
75191;SDS011;63771;52.580;9.734;2022-11-25T07:38:31;5.75;;;3.70;;
75191;SDS011;63771;52.580;9.734;2022-11-25T07:41:07;8.02;;;3.50;;
75191;SDS011;63771;52.580;9.734;2022-11-25T07:43:32;12.65;;;4.13;;
75191;SDS011;63771;52.580;9.734;2022-11-25T07:46:32;9.45;;;4.13;;
75191;SDS011;63771;52.580;9.734;2022-11-25T07:48:58;8.98;;;3.65;;
75191;SDS011;63771;52.580;9.734;2022-11-25T07:51:26;9.13;;;3.80;;
75191;SDS011;63771;52.580;9.734;2022-11-25T07:53:57;4.43;;;4.00;;
75191;SDS011;63771;52.580;9.734;2022-11-25T07:56:25;11.60;;;4.13;;
75191;SDS011;63771;52.580;9.734;2022-11-25T07:58:51;13.23;;;5.43;;
75191;SDS011;63771;52.580;9.734;2022-11-25T08:01:17;10.65;;;5.60;;
75191;SDS011;63771;52.580;9.734;2022-11-25T08:03:43;12.45;;;5.97;;
75191;SDS011;63771;52.580;9.734;2022-11-25T08:06:10;8.48;;;4.78;;
75191;SDS011;63771;52.580;9.734;2022-11-25T08:08:39;11.30;;;5.20;;
75191;SDS011;63771;52.580;9.734;2022-11-25T08:11:10;12.85;;;5.25;;
75191;SDS011;63771;52.580;9.734;2022-11-25T08:13:37;9.40;;;5.03;;
75191;SDS011;63771;52.580;9.734;2022-11-25T08:16:03;13.63;;;5.97;;
75191;SDS011;63771;52.580;9.734;2022-11-25T08:18:28;18.92;;;6.38;;
75191;SDS011;63771;52.580;9.734;2022-11-25T08:21:01;10.25;;;5.55;;
75191;SDS011;63771;52.580;9.734;2022-11-25T08:23:28;14.32;;;4.82;;
75191;SDS011;63771;52.580;9.734;2022-11-25T08:25:55;9.25;;;5.47;;
75191;SDS011;63771;52.580;9.734;2022-11-25T08:28:20;10.00;;;4.72;;
75191;SDS011;63771;52.580;9.734;2022-11-25T08:30:45;12.03;;;4.97;;
75191;SDS011;63771;52.580;9.734;2022-11-25T08:33:11;11.02;;;4.60;;
75191;SDS011;63771;52.580;9.734;2022-11-25T08:35:36;8.93;;;3.97;;
75191;SDS011;63771;52.580;9.734;2022-11-25T08:38:06;11.73;;;3.83;;
75191;SDS011;63771;52.580;9.734;2022-11-25T08:40:33;10.15;;;4.30;;
75191;SDS011;63771;52.580;9.734;2022-11-25T08:43:00;9.40;;;4.25;;
75191;SDS011;63771;52.580;9.734;2022-11-25T08:45:26;9.15;;;4.00;;
75191;SDS011;63771;52.580;9.734;2022-11-25T08:47:52;8.55;;;4.05;;
75191;SDS011;63771;52.580;9.734;2022-11-25T08:50:17;9.02;;;4.20;;
75191;SDS011;63771;52.580;9.734;2022-11-25T08:52:43;5.90;;;3.78;;
75191;SDS011;63771;52.580;9.734;2022-11-25T08:55:08;7.90;;;4.60;;
75191;SDS011;63771;52.580;9.734;2022-11-25T08:57:34;9.35;;;4.70;;
75191;SDS011;63771;52.580;9.734;2022-11-25T08:59:59;8.05;;;4.07;;
75191;SDS011;63771;52.580;9.734;2022-11-25T09:02:25;7.63;;;4.33;;
75191;SDS011;63771;52.580;9.734;2022-11-25T09:04:50;7.88;;;4.60;;
75191;SDS011;63771;52.580;9.734;2022-11-25T09:07:16;5.78;;;4.20;;
75191;SDS011;63771;52.580;9.734;2022-11-25T09:09:41;8.98;;;5.45;;
75191;SDS011;63771;52.580;9.734;2022-11-25T09:12:06;9.85;;;5.45;;
75191;SDS011;63771;52.580;9.734;2022-11-25T09:14:32;12.68;;;4.90;;
75191;SDS011;63771;52.580;9.734;2022-11-25T09:16:57;8.83;;;4.40;;
75191;SDS011;63771;52.580;9.734;2022-11-25T09:19:22;7.40;;;4.67;;
75191;SDS011;63771;52.580;9.734;2022-11-25T09:21:48;10.67;;;4.70;;
75191;SDS011;63771;52.580;9.734;2022-11-25T09:24:13;8.83;;;5.03;;
75191;SDS011;63771;52.580;9.734;2022-11-25T09:26:38;8.23;;;4.00;;
75191;SDS011;63771;52.580;9.734;2022-11-25T09:29:06;6.95;;;4.30;;
75191;SDS011;63771;52.580;9.734;2022-11-25T09:31:31;6.35;;;4.75;;
75191;SDS011;63771;52.580;9.734;2022-11-25T09:33:57;10.67;;;6.40;;
75191;SDS011;63771;52.580;9.734;2022-11-25T09:36:22;15.95;;;8.02;;
75191;SDS011;63771;52.580;9.734;2022-11-25T09:38:49;17.60;;;8.82;;
75191;SDS011;63771;52.580;9.734;2022-11-25T09:44:15;12.63;;;6.43;;
75191;SDS011;63771;52.580;9.734;2022-11-25T09:47:21;14.40;;;7.32;;
75191;SDS011;63771;52.580;9.734;2022-11-25T09:52:59;10.40;;;7.68;;
75191;SDS011;63771;52.580;9.734;2022-11-25T09:55:38;22.98;;;7.28;;
75191;SDS011;63771;52.580;9.734;2022-11-25T09:58:15;16.27;;;7.43;;
75191;SDS011;63771;52.580;9.734;2022-11-25T10:00:49;10.38;;;6.45;;
75191;SDS011;63771;52.580;9.734;2022-11-25T10:08:42;13.15;;;6.10;;
75191;SDS011;63771;52.580;9.734;2022-11-25T10:13:48;13.30;;;5.32;;
75191;SDS011;63771;52.580;9.734;2022-11-25T10:19:10;10.48;;;5.13;;
75191;SDS011;63771;52.580;9.734;2022-11-25T10:21:45;11.27;;;5.63;;
75191;SDS011;63771;52.580;9.734;2022-11-25T10:24:14;11.45;;;5.45;;
75191;SDS011;63771;52.580;9.734;2022-11-25T10:26:42;8.90;;;5.82;;
75191;SDS011;63771;52.580;9.734;2022-11-25T10:31:37;10.70;;;5.80;;
75191;SDS011;63771;52.580;9.734;2022-11-25T10:34:15;13.00;;;6.40;;
75191;SDS011;63771;52.580;9.734;2022-11-25T10:36:43;10.30;;;5.05;;
75191;SDS011;63771;52.580;9.734;2022-11-25T10:41:52;8.85;;;4.70;;
75191;SDS011;63771;52.580;9.734;2022-11-25T10:44:30;9.35;;;4.70;;
75191;SDS011;63771;52.580;9.734;2022-11-25T10:47:08;13.43;;;6.35;;
75191;SDS011;63771;52.580;9.734;2022-11-25T10:49:37;12.50;;;5.97;;
75191;SDS011;63771;52.580;9.734;2022-11-25T10:52:15;10.18;;;5.30;;
75191;SDS011;63771;52.580;9.734;2022-11-25T10:54:54;12.52;;;6.10;;
75191;SDS011;63771;52.580;9.734;2022-11-25T10:57:32;10.40;;;5.85;;
75191;SDS011;63771;52.580;9.734;2022-11-25T10:59:58;9.00;;;5.30;;
75191;SDS011;63771;52.580;9.734;2022-11-25T11:02:29;6.90;;;4.65;;
75191;SDS011;63771;52.580;9.734;2022-11-25T11:07:31;10.27;;;4.93;;
75191;SDS011;63771;52.580;9.734;2022-11-25T11:12:49;11.05;;;4.85;;
75191;SDS011;63771;52.580;9.734;2022-11-25T11:15:28;10.27;;;4.70;;
75191;SDS011;63771;52.580;9.734;2022-11-25T11:17:57;11.38;;;4.47;;
75191;SDS011;63771;52.580;9.734;2022-11-25T11:20:24;9.52;;;5.15;;
75191;SDS011;63771;52.580;9.734;2022-11-25T11:23:06;10.82;;;5.22;;
75191;SDS011;63771;52.580;9.734;2022-11-25T11:25:38;12.35;;;5.38;;
75191;SDS011;63771;52.580;9.734;2022-11-25T11:28:25;7.18;;;3.92;;
75191;SDS011;63771;52.580;9.734;2022-11-25T11:31:02;5.55;;;4.00;;
75191;SDS011;63771;52.580;9.734;2022-11-25T11:36:23;10.15;;;4.97;;
75191;SDS011;63771;52.580;9.734;2022-11-25T11:39:16;11.02;;;5.65;;
75191;SDS011;63771;52.580;9.734;2022-11-25T11:50:29;21.25;;;7.20;;
75191;SDS011;63771;52.580;9.734;2022-11-25T12:01:55;10.20;;;6.35;;
75191;SDS011;63771;52.580;9.734;2022-11-25T12:07:33;11.07;;;5.88;;
75191;SDS011;63771;52.580;9.734;2022-11-25T12:12:41;6.60;;;4.90;;
75191;SDS011;63771;52.580;9.734;2022-11-25T12:15:28;7.63;;;5.78;;
75191;SDS011;63771;52.580;9.734;2022-11-25T12:18:02;14.10;;;6.75;;
75191;SDS011;63771;52.580;9.734;2022-11-25T12:20:44;14.13;;;6.15;;
75191;SDS011;63771;52.580;9.734;2022-11-25T12:23:28;14.25;;;6.47;;
75191;SDS011;63771;52.580;9.734;2022-11-25T12:26:04;14.10;;;6.68;;
75191;SDS011;63771;52.580;9.734;2022-11-25T12:28:42;7.75;;;5.55;;
75191;SDS011;63771;52.580;9.734;2022-11-25T12:31:26;9.95;;;5.85;;
75191;SDS011;63771;52.580;9.734;2022-11-25T12:39:44;9.15;;;5.13;;
75191;SDS011;63771;52.580;9.734;2022-11-25T12:41:59;9.50;;;5.32;;
75191;SDS011;63771;52.580;9.734;2022-11-25T12:47:31;9.23;;;5.65;;
75191;SDS011;63771;52.580;9.734;2022-11-25T12:49:56;12.38;;;5.97;;
75191;SDS011;63771;52.580;9.734;2022-11-25T12:52:25;8.32;;;5.40;;
75191;SDS011;63771;52.580;9.734;2022-11-25T13:00:17;9.73;;;6.18;;
75191;SDS011;63771;52.580;9.734;2022-11-25T13:02:49;10.38;;;6.50;;
75191;SDS011;63771;52.580;9.734;2022-11-25T13:16:38;11.75;;;5.97;;
75191;SDS011;63771;52.580;9.734;2022-11-25T13:19:07;8.73;;;4.15;;
75191;SDS011;63771;52.580;9.734;2022-11-25T13:21:36;5.97;;;4.35;;
75191;SDS011;63771;52.580;9.734;2022-11-25T13:24:31;8.88;;;4.80;;
75191;SDS011;63771;52.580;9.734;2022-11-25T13:27:02;7.72;;;5.07;;
75191;SDS011;63771;52.580;9.734;2022-11-25T13:32:01;9.30;;;5.60;;
75191;SDS011;63771;52.580;9.734;2022-11-25T13:34:49;8.57;;;5.38;;
75191;SDS011;63771;52.580;9.734;2022-11-25T13:43:03;23.08;;;9.57;;
75191;SDS011;63771;52.580;9.734;2022-11-25T13:45:34;14.73;;;7.68;;
75191;SDS011;63771;52.580;9.734;2022-11-25T13:48:06;10.60;;;5.68;;
75191;SDS011;63771;52.580;9.734;2022-11-25T13:50:41;11.10;;;6.20;;
75191;SDS011;63771;52.580;9.734;2022-11-25T13:53:17;10.05;;;6.05;;
75191;SDS011;63771;52.580;9.734;2022-11-25T13:55:45;10.70;;;6.13;;
75191;SDS011;63771;52.580;9.734;2022-11-25T13:58:18;11.70;;;6.03;;
75191;SDS011;63771;52.580;9.734;2022-11-25T14:06:03;10.60;;;5.82;;
75191;SDS011;63771;52.580;9.734;2022-11-25T14:16:41;12.40;;;9.60;;
75191;SDS011;63771;52.580;9.734;2022-11-25T14:22:40;9.05;;;6.35;;
75191;SDS011;63771;52.580;9.734;2022-11-25T14:25:21;8.30;;;5.47;;
75191;SDS011;63771;52.580;9.734;2022-11-25T14:30:52;8.52;;;6.28;;
75191;SDS011;63771;52.580;9.734;2022-11-25T14:33:25;7.43;;;6.28;;
75191;SDS011;63771;52.580;9.734;2022-11-25T14:35:59;12.63;;;7.15;;
75191;SDS011;63771;52.580;9.734;2022-11-25T14:38:36;9.60;;;6.32;;
75191;SDS011;63771;52.580;9.734;2022-11-25T14:41:10;10.80;;;5.82;;
75191;SDS011;63771;52.580;9.734;2022-11-25T14:43:43;8.35;;;6.25;;
75191;SDS011;63771;52.580;9.734;2022-11-25T14:46:16;12.25;;;6.70;;
75191;SDS011;63771;52.580;9.734;2022-11-25T14:48:51;10.38;;;7.88;;
75191;SDS011;63771;52.580;9.734;2022-11-25T14:51:17;13.98;;;8.35;;
75191;SDS011;63771;52.580;9.734;2022-11-25T14:53:44;11.70;;;8.32;;
75191;SDS011;63771;52.580;9.734;2022-11-25T14:56:11;13.25;;;8.65;;
75191;SDS011;63771;52.580;9.734;2022-11-25T14:58:38;18.00;;;9.70;;
75191;SDS011;63771;52.580;9.734;2022-11-25T15:01:06;9.98;;;8.40;;
75191;SDS011;63771;52.580;9.734;2022-11-25T15:03:40;11.23;;;7.70;;
75191;SDS011;63771;52.580;9.734;2022-11-25T15:06:06;15.70;;;7.90;;
75191;SDS011;63771;52.580;9.734;2022-11-25T15:08:37;9.23;;;7.38;;
75191;SDS011;63771;52.580;9.734;2022-11-25T15:11:08;14.80;;;10.10;;
75191;SDS011;63771;52.580;9.734;2022-11-25T15:13:39;13.90;;;8.43;;
75191;SDS011;63771;52.580;9.734;2022-11-25T15:18:49;13.02;;;8.80;;
75191;SDS011;63771;52.580;9.734;2022-11-25T15:21:18;12.75;;;8.45;;
75191;SDS011;63771;52.580;9.734;2022-11-25T15:23:46;20.48;;;8.80;;
75191;SDS011;63771;52.580;9.734;2022-11-25T15:26:14;23.92;;;10.98;;
75191;SDS011;63771;52.580;9.734;2022-11-25T15:28:42;19.02;;;12.05;;
75191;SDS011;63771;52.580;9.734;2022-11-25T15:31:09;22.80;;;13.02;;
75191;SDS011;63771;52.580;9.734;2022-11-25T15:33:40;16.83;;;11.82;;
75191;SDS011;63771;52.580;9.734;2022-11-25T15:36:06;20.55;;;13.02;;
75191;SDS011;63771;52.580;9.734;2022-11-25T15:38:34;28.90;;;16.17;;
75191;SDS011;63771;52.580;9.734;2022-11-25T15:41:01;25.60;;;14.82;;
75191;SDS011;63771;52.580;9.734;2022-11-25T15:43:29;21.10;;;13.13;;
75191;SDS011;63771;52.580;9.734;2022-11-25T15:46:00;19.00;;;12.15;;
75191;SDS011;63771;52.580;9.734;2022-11-25T15:48:29;22.15;;;11.63;;
75191;SDS011;63771;52.580;9.734;2022-11-25T15:51:03;14.50;;;11.18;;
75191;SDS011;63771;52.580;9.734;2022-11-25T15:53:40;16.02;;;10.75;;
75191;SDS011;63771;52.580;9.734;2022-11-25T15:56:08;16.40;;;11.02;;
75191;SDS011;63771;52.580;9.734;2022-11-25T15:58:39;19.48;;;11.00;;
75191;SDS011;63771;52.580;9.734;2022-11-25T16:03:41;20.73;;;11.32;;
75191;SDS011;63771;52.580;9.734;2022-11-25T16:06:17;22.23;;;12.20;;
75191;SDS011;63771;52.580;9.734;2022-11-25T16:08:54;15.18;;;11.25;;
75191;SDS011;63771;52.580;9.734;2022-11-25T16:11:24;19.50;;;11.40;;
75191;SDS011;63771;52.580;9.734;2022-11-25T16:13:53;15.88;;;12.70;;
75191;SDS011;63771;52.580;9.734;2022-11-25T16:16:27;24.13;;;14.73;;
75191;SDS011;63771;52.580;9.734;2022-11-25T16:19:02;24.10;;;13.80;;
75191;SDS011;63771;52.580;9.734;2022-11-25T16:24:11;17.67;;;13.63;;
75191;SDS011;63771;52.580;9.734;2022-11-25T16:26:39;19.85;;;13.82;;
75191;SDS011;63771;52.580;9.734;2022-11-25T16:32:32;18.10;;;12.73;;
75191;SDS011;63771;52.580;9.734;2022-11-25T16:35:11;22.70;;;16.00;;
75191;SDS011;63771;52.580;9.734;2022-11-25T16:37:39;20.02;;;14.43;;
75191;SDS011;63771;52.580;9.734;2022-11-25T16:40:04;17.27;;;12.32;;
75191;SDS011;63771;52.580;9.734;2022-11-25T16:42:30;24.35;;;13.60;;
75191;SDS011;63771;52.580;9.734;2022-11-25T16:44:56;18.80;;;13.48;;
75191;SDS011;63771;52.580;9.734;2022-11-25T16:47:24;20.92;;;14.18;;
75191;SDS011;63771;52.580;9.734;2022-11-25T16:49:50;16.63;;;11.82;;
75191;SDS011;63771;52.580;9.734;2022-11-25T16:52:16;26.90;;;13.68;;
75191;SDS011;63771;52.580;9.734;2022-11-25T16:54:41;18.43;;;12.50;;
75191;SDS011;63771;52.580;9.734;2022-11-25T16:57:08;19.57;;;12.73;;
75191;SDS011;63771;52.580;9.734;2022-11-25T16:59:40;16.65;;;12.25;;